Terminal Aerodrome Forecast
Issued by NWS Melbourne, FL

Home | Current Version | Previous Version | Text Only | Print | Product List | Glossary On
Versions: 1 2 3 4 5 6 7 8 9 10 11 12 13 14 15 16 17 18
000
FTUS42 KMLB 270300 AAA
TAFVRB
TAF AMD
KVRB 270310Z 2703/2724 05005KT P6SM OVC020
     FM270900 05004KT 5SM BR BKN010 OVC020
     FM271500 08007KT P6SM BKN025=

USA.gov is the U.S. government's official web portal to all federal, state and local government web resources and services.